createdAt,value
2019-05-22T00:02:41.389Z,46
2019-05-22T00:07:43.835Z,39
2019-05-22T00:12:47.227Z,39
2019-05-22T00:17:48.766Z,38
2019-05-22T00:22:51.253Z,39
2019-05-22T00:27:53.665Z,36
2019-05-22T00:32:56.141Z,37
2019-05-22T00:37:58.579Z,36
2019-05-22T00:43:05.095Z,34
2019-05-22T00:48:03.487Z,35
2019-05-22T00:53:05.979Z,31
2019-05-22T00:58:08.445Z,27
2019-05-22T01:03:11.005Z,22
2019-05-22T01:08:13.354Z,23
2019-05-22T01:13:15.781Z,21
2019-05-22T01:23:20.716Z,18
2019-05-22T01:28:23.158Z,21
2019-05-22T01:33:25.622Z,23
2019-05-22T01:38:28.089Z,28
2019-05-22T01:43:30.590Z,30
2019-05-22T01:48:33.003Z,29
2019-05-22T01:53:35.456Z,31
2019-05-22T01:58:38.034Z,31
2019-05-22T02:03:40.397Z,27
2019-05-22T02:08:42.818Z,22
2019-05-22T02:13:45.550Z,20
2019-05-22T02:18:47.748Z,21
2019-05-22T02:23:50.202Z,22
2019-05-22T02:28:52.710Z,22
2019-05-22T02:33:55.128Z,22
2019-05-22T02:38:57.666Z,22
2019-05-22T02:44:00.047Z,22
2019-05-22T02:49:02.505Z,20
2019-05-22T02:54:05.075Z,18
2019-05-22T02:59:07.403Z,18
2019-05-22T03:04:09.868Z,16
2019-05-22T03:09:12.341Z,15
2019-05-22T03:14:14.789Z,13
2019-05-22T03:19:17.235Z,10
2019-05-22T03:24:19.713Z,10
2019-05-22T03:29:22.155Z,11
2019-05-22T03:34:24.598Z,9
2019-05-22T03:39:27.065Z,12
2019-05-22T03:44:29.572Z,9
2019-05-22T03:49:31.995Z,9
2019-05-22T03:54:34.473Z,13
2019-05-22T03:59:36.913Z,14
2019-05-22T04:04:39.358Z,16
2019-05-22T04:09:41.853Z,14
2019-05-22T04:14:44.331Z,14
2019-05-22T04:19:49.836Z,16
2019-05-22T04:24:49.258Z,20
2019-05-22T04:29:51.718Z,19
2019-05-22T04:34:54.166Z,20
2019-05-22T04:39:56.567Z,14
2019-05-22T04:44:59.037Z,11
2019-05-22T04:50:06.996Z,12
2019-05-22T04:55:04.011Z,12
2019-05-22T05:00:06.481Z,13
2019-05-22T05:05:09.114Z,14
2019-05-22T05:10:11.400Z,11
2019-05-22T05:15:13.772Z,12
2019-05-22T05:20:22.309Z,10
2019-05-22T05:25:18.769Z,11
2019-05-22T05:30:21.147Z,12
2019-05-22T05:35:23.610Z,12
2019-05-22T05:40:26.056Z,13
2019-05-22T05:45:28.602Z,15
2019-05-22T05:50:39.268Z,13
2019-05-22T05:55:33.543Z,12
2019-05-22T06:00:35.977Z,12
2019-05-22T06:05:38.340Z,11
2019-05-22T06:10:40.858Z,12
2019-05-22T06:15:46.851Z,13
2019-05-22T06:21:01.162Z,12
2019-05-22T06:25:48.206Z,13
2019-05-22T06:30:50.744Z,16
2019-05-22T06:35:53.103Z,19
2019-05-22T06:40:55.555Z,19
2019-05-22T06:51:00.503Z,17
2019-05-22T06:56:02.966Z,19
2019-05-22T07:01:05.380Z,19
2019-05-22T07:06:08.330Z,19
2019-05-22T07:11:10.329Z,19
2019-05-22T07:16:12.764Z,18
2019-05-22T07:21:15.219Z,18
2019-05-22T07:26:17.690Z,19
2019-05-22T07:31:20.174Z,19
2019-05-22T07:36:22.596Z,20
2019-05-22T07:41:25.063Z,20
2019-05-22T07:46:30.770Z,21
2019-05-22T07:56:32.415Z,18
2019-05-22T08:01:34.914Z,16
2019-05-22T08:11:39.827Z,13
2019-05-22T08:16:42.267Z,14
2019-05-22T08:21:44.715Z,14
2019-05-22T08:26:54.083Z,15
2019-05-22T08:31:50.236Z,19
2019-05-22T08:36:52.245Z,19
2019-05-22T08:41:54.555Z,20
2019-05-22T08:46:57.064Z,17
2019-05-22T09:02:04.416Z,17
2019-05-22T09:07:06.918Z,19
2019-05-22T09:12:09.304Z,19
2019-05-22T09:17:11.861Z,20
2019-05-22T09:22:14.263Z,21
2019-05-22T09:27:16.670Z,20
2019-05-22T09:32:19.131Z,25
2019-05-22T09:37:21.589Z,24
2019-05-22T09:42:24.041Z,22
2019-05-22T09:47:26.519Z,22
2019-05-22T09:52:29.030Z,23
2019-05-22T10:02:33.875Z,23
2019-05-22T10:07:36.391Z,23
2019-05-22T10:12:38.777Z,26
2019-05-22T10:17:41.249Z,25
2019-05-22T10:22:43.695Z,27
2019-05-22T10:27:46.155Z,37
2019-05-22T10:32:48.654Z,38
2019-05-22T10:37:51.105Z,37
2019-05-22T10:42:53.564Z,39
2019-05-22T10:47:56.022Z,38
2019-05-22T10:52:58.521Z,38
2019-05-22T10:58:00.954Z,40
2019-05-22T11:03:03.440Z,41
2019-05-22T11:08:05.854Z,40
2019-05-22T11:13:08.310Z,39
2019-05-22T11:18:10.735Z,38
2019-05-22T11:23:13.281Z,37
2019-05-22T11:28:15.664Z,35
2019-05-22T11:33:18.132Z,34
2019-05-22T11:38:20.563Z,36
2019-05-22T11:43:23.037Z,35
2019-05-22T11:48:25.505Z,34
2019-05-22T11:53:28.791Z,32
2019-05-22T11:58:30.456Z,31
2019-05-22T12:03:32.931Z,32
2019-05-22T12:08:35.370Z,33
2019-05-22T12:13:37.782Z,31
2019-05-22T12:18:40.270Z,31
2019-05-22T12:23:42.801Z,30
2019-05-22T12:28:45.218Z,28
2019-05-22T12:33:47.624Z,25
2019-05-22T12:38:50.131Z,22
2019-05-22T12:43:52.529Z,23
2019-05-22T12:48:54.994Z,23
2019-05-22T12:53:57.615Z,23
2019-05-22T12:58:59.883Z,23
2019-05-22T13:04:02.629Z,22
2019-05-22T13:09:04.856Z,22
2019-05-22T13:14:07.368Z,23
2019-05-22T13:19:09.752Z,21
2019-05-22T13:24:12.336Z,20
2019-05-22T13:29:14.660Z,18
2019-05-22T13:34:17.118Z,18
2019-05-22T13:39:19.662Z,17
2019-05-22T13:44:22.068Z,16
2019-05-22T13:49:24.490Z,15
2019-05-22T13:54:27.408Z,16
2019-05-22T13:59:29.391Z,16
2019-05-22T14:04:31.931Z,16
2019-05-22T14:09:34.443Z,16
2019-05-22T14:14:36.767Z,18
2019-05-22T14:19:39.259Z,17
2019-05-22T14:24:41.884Z,20
2019-05-22T14:29:44.176Z,18
2019-05-22T14:34:46.837Z,20
2019-05-22T14:39:49.146Z,21
2019-05-22T14:44:51.563Z,19
2019-05-22T14:49:54.022Z,21
2019-05-22T14:54:56.520Z,21
2019-05-22T14:59:58.930Z,19
2019-05-22T15:05:01.363Z,18
2019-05-22T15:10:03.855Z,17
2019-05-22T15:15:06.421Z,18
2019-05-22T15:20:08.721Z,17
2019-05-22T15:25:11.271Z,16
2019-05-22T15:30:13.678Z,16
2019-05-22T15:35:16.112Z,16
2019-05-22T15:40:18.596Z,18
2019-05-22T15:45:21.096Z,19
2019-05-22T15:50:26.737Z,21
2019-05-22T15:55:26.152Z,21
2019-05-22T16:00:28.426Z,23
2019-05-22T16:05:30.849Z,24
2019-05-22T16:10:33.332Z,24
2019-05-22T16:15:35.750Z,24
2019-05-22T16:20:38.294Z,25
2019-05-22T16:25:40.766Z,26
2019-05-22T16:30:43.149Z,25
2019-05-22T16:35:45.631Z,23
2019-05-22T16:40:48.054Z,23
2019-05-22T16:45:50.549Z,26
2019-05-22T16:50:52.949Z,29
2019-05-22T16:55:55.487Z,30
2019-05-22T17:06:00.346Z,29
2019-05-22T17:11:02.797Z,31
2019-05-22T17:16:05.251Z,32
2019-05-22T17:21:07.772Z,29
2019-05-22T17:26:10.177Z,29
2019-05-22T17:31:12.610Z,26
2019-05-22T17:36:15.103Z,23
2019-05-22T17:41:17.516Z,22
2019-05-22T17:46:20.005Z,22
2019-05-22T17:51:22.582Z,24
2019-05-22T17:56:24.922Z,25
2019-05-22T18:01:27.380Z,24
2019-05-22T18:06:29.835Z,25
2019-05-22T18:11:32.315Z,24
2019-05-22T18:16:34.765Z,22
2019-05-22T18:21:37.231Z,25
2019-05-22T18:26:39.698Z,23
2019-05-22T18:31:42.152Z,23
2019-05-22T18:36:44.600Z,21
2019-05-22T18:41:47.018Z,22
2019-05-22T18:46:49.485Z,22
2019-05-22T18:51:51.992Z,24
2019-05-22T18:56:54.419Z,23
2019-05-22T19:01:56.855Z,22
2019-05-22T19:06:59.387Z,23
2019-05-22T19:12:01.781Z,22
2019-05-22T19:17:04.238Z,22
2019-05-22T19:22:06.773Z,20
2019-05-22T19:27:09.221Z,21
2019-05-22T19:32:11.635Z,19
2019-05-22T19:37:14.076Z,17
2019-05-22T19:42:16.515Z,17
2019-05-22T19:47:18.965Z,16
2019-05-22T19:52:22.683Z,16
2019-05-22T19:57:23.931Z,17
2019-05-22T20:02:26.367Z,17
2019-05-22T20:07:28.821Z,15
2019-05-22T20:12:31.297Z,18
2019-05-22T20:17:33.740Z,16
2019-05-22T20:22:36.229Z,15
2019-05-22T20:27:38.626Z,15
2019-05-22T20:32:41.130Z,14
2019-05-22T20:37:43.574Z,15
2019-05-22T20:42:46.022Z,15
2019-05-22T20:47:48.497Z,14
2019-05-22T20:52:51.016Z,14
2019-05-22T20:57:53.434Z,14
2019-05-22T21:02:55.894Z,15
2019-05-22T21:07:58.323Z,15
2019-05-22T21:13:00.753Z,13
2019-05-22T21:18:03.276Z,14
2019-05-22T21:23:05.682Z,15
2019-05-22T21:28:08.283Z,14
2019-05-22T21:33:10.587Z,14
2019-05-22T21:38:13.082Z,15
2019-05-22T21:43:15.524Z,14
2019-05-22T21:48:17.982Z,13
2019-05-22T21:53:20.433Z,14
2019-05-22T21:58:22.911Z,13
2019-05-22T22:03:25.331Z,13
2019-05-22T22:08:27.819Z,14
2019-05-22T22:13:30.260Z,13
2019-05-22T22:18:32.726Z,12
2019-05-22T22:23:35.191Z,11
2019-05-22T22:28:37.613Z,13
2019-05-22T22:33:40.079Z,13
2019-05-22T22:38:42.563Z,12
2019-05-22T22:43:45.010Z,13
2019-05-22T22:48:47.495Z,12
2019-05-22T22:53:49.948Z,11
2019-05-22T22:58:52.506Z,11
2019-05-22T23:03:54.834Z,11
2019-05-22T23:08:57.311Z,10
2019-05-22T23:13:59.804Z,11
2019-05-22T23:19:02.208Z,11
2019-05-22T23:24:04.688Z,9
2019-05-22T23:29:07.185Z,10
2019-05-22T23:34:09.584Z,9
2019-05-22T23:39:12.081Z,10
2019-05-22T23:44:14.504Z,11
2019-05-22T23:49:16.944Z,10
2019-05-22T23:54:19.410Z,10
2019-05-22T23:59:21.875Z,10
